sensor_id;sensor_type;location;lat;lon;timestamp;temperature;humidity
28837;DHT22;50669;50.982;11.022;2022-09-09T00:04:13;16.30;99.90
28837;DHT22;50669;50.982;11.022;2022-09-09T00:06:46;16.30;99.90
28837;DHT22;50669;50.982;11.022;2022-09-09T00:09:18;16.30;99.90
28837;DHT22;50669;50.982;11.022;2022-09-09T00:12:16;16.30;99.90
28837;DHT22;50669;50.982;11.022;2022-09-09T00:14:53;16.30;99.90
28837;DHT22;50669;50.982;11.022;2022-09-09T00:20:34;16.30;99.90
28837;DHT22;50669;50.982;11.022;2022-09-09T00:23:12;16.20;99.90
28837;DHT22;50669;50.982;11.022;2022-09-09T00:28:29;16.20;99.90
28837;DHT22;50669;50.982;11.022;2022-09-09T00:31:12;16.10;99.90
28837;DHT22;50669;50.982;11.022;2022-09-09T00:33:38;16.10;99.90
28837;DHT22;50669;50.982;11.022;2022-09-09T00:36:12;16.00;99.90
28837;DHT22;50669;50.982;11.022;2022-09-09T00:38:50;16.00;99.90
28837;DHT22;50669;50.982;11.022;2022-09-09T00:41:50;16.00;99.90
28837;DHT22;50669;50.982;11.022;2022-09-09T00:44:36;16.00;99.90
28837;DHT22;50669;50.982;11.022;2022-09-09T00:49:59;16.00;99.90
28837;DHT22;50669;50.982;11.022;2022-09-09T00:52:46;16.00;99.90
28837;DHT22;50669;50.982;11.022;2022-09-09T00:55:47;16.00;99.90
28837;DHT22;50669;50.982;11.022;2022-09-09T00:58:13;16.00;99.90
28837;DHT22;50669;50.982;11.022;2022-09-09T01:00:46;16.00;99.90
28837;DHT22;50669;50.982;11.022;2022-09-09T01:14:54;16.00;99.90
28837;DHT22;50669;50.982;11.022;2022-09-09T01:17:28;15.90;99.90
28837;DHT22;50669;50.982;11.022;2022-09-09T01:28:45;15.80;99.90
28837;DHT22;50669;50.982;11.022;2022-09-09T01:31:23;15.80;99.90
28837;DHT22;50669;50.982;11.022;2022-09-09T01:33:50;15.80;99.90
28837;DHT22;50669;50.982;11.022;2022-09-09T01:39:17;15.70;99.90
28837;DHT22;50669;50.982;11.022;2022-09-09T01:41:45;15.70;99.90
28837;DHT22;50669;50.982;11.022;2022-09-09T01:44:11;15.70;99.90
28837;DHT22;50669;50.982;11.022;2022-09-09T01:46:37;15.70;99.90
28837;DHT22;50669;50.982;11.022;2022-09-09T01:49:06;15.70;99.90
28837;DHT22;50669;50.982;11.022;2022-09-09T01:51:34;15.70;99.90
28837;DHT22;50669;50.982;11.022;2022-09-09T01:54:03;15.80;99.90
28837;DHT22;50669;50.982;11.022;2022-09-09T02:02:36;15.90;99.90
28837;DHT22;50669;50.982;11.022;2022-09-09T02:07:41;15.90;99.90
28837;DHT22;50669;50.982;11.022;2022-09-09T02:10:28;15.90;99.90
28837;DHT22;50669;50.982;11.022;2022-09-09T02:13:02;15.90;99.90
28837;DHT22;50669;50.982;11.022;2022-09-09T02:15:57;15.90;99.90
28837;DHT22;50669;50.982;11.022;2022-09-09T02:18:30;15.90;99.90
28837;DHT22;50669;50.982;11.022;2022-09-09T02:20:56;16.00;99.90
28837;DHT22;50669;50.982;11.022;2022-09-09T02:23:24;16.00;99.90
28837;DHT22;50669;50.982;11.022;2022-09-09T02:25:51;16.00;99.90
28837;DHT22;50669;50.982;11.022;2022-09-09T02:28:20;16.10;99.90
28837;DHT22;50669;50.982;11.022;2022-09-09T02:30:49;16.10;99.90
28837;DHT22;50669;50.982;11.022;2022-09-09T02:33:25;16.10;99.90
28837;DHT22;50669;50.982;11.022;2022-09-09T02:35:55;16.10;99.90
28837;DHT22;50669;50.982;11.022;2022-09-09T02:38:32;16.10;99.90
28837;DHT22;50669;50.982;11.022;2022-09-09T02:41:00;16.10;99.90
28837;DHT22;50669;50.982;11.022;2022-09-09T02:43:31;16.20;99.90
28837;DHT22;50669;50.982;11.022;2022-09-09T02:46:04;16.20;99.90
28837;DHT22;50669;50.982;11.022;2022-09-09T02:48:59;16.20;99.90
28837;DHT22;50669;50.982;11.022;2022-09-09T02:54:27;16.30;99.90
28837;DHT22;50669;50.982;11.022;2022-09-09T02:57:10;16.30;99.90
28837;DHT22;50669;50.982;11.022;2022-09-09T02:59:36;16.30;99.90
28837;DHT22;50669;50.982;11.022;2022-09-09T03:02:02;16.40;99.90
28837;DHT22;50669;50.982;11.022;2022-09-09T03:04:28;16.30;99.90
28837;DHT22;50669;50.982;11.022;2022-09-09T03:06:55;16.30;99.90
28837;DHT22;50669;50.982;11.022;2022-09-09T03:09:21;16.40;99.90
28837;DHT22;50669;50.982;11.022;2022-09-09T03:11:51;16.40;99.90
28837;DHT22;50669;50.982;11.022;2022-09-09T03:14:17;16.40;99.90
28837;DHT22;50669;50.982;11.022;2022-09-09T03:16:46;16.40;99.90
28837;DHT22;50669;50.982;11.022;2022-09-09T03:19:12;16.40;99.90
28837;DHT22;50669;50.982;11.022;2022-09-09T03:21:40;16.40;99.90
28837;DHT22;50669;50.982;11.022;2022-09-09T03:24:06;16.50;99.90
28837;DHT22;50669;50.982;11.022;2022-09-09T03:26:32;16.40;99.90
28837;DHT22;50669;50.982;11.022;2022-09-09T03:28:59;16.40;99.90
28837;DHT22;50669;50.982;11.022;2022-09-09T03:31:26;16.40;99.90
28837;DHT22;50669;50.982;11.022;2022-09-09T03:33:57;16.40;99.90
28837;DHT22;50669;50.982;11.022;2022-09-09T03:36:29;16.40;99.90
28837;DHT22;50669;50.982;11.022;2022-09-09T03:38:57;16.30;99.90
28837;DHT22;50669;50.982;11.022;2022-09-09T03:41:26;16.40;99.90
28837;DHT22;50669;50.982;11.022;2022-09-09T03:43:55;16.40;99.90
28837;DHT22;50669;50.982;11.022;2022-09-09T03:46:24;16.30;99.90
28837;DHT22;50669;50.982;11.022;2022-09-09T03:48:51;16.40;99.90
28837;DHT22;50669;50.982;11.022;2022-09-09T03:51:17;16.30;99.90
28837;DHT22;50669;50.982;11.022;2022-09-09T03:53:44;16.40;99.90
28837;DHT22;50669;50.982;11.022;2022-09-09T03:56:12;16.40;99.90
28837;DHT22;50669;50.982;11.022;2022-09-09T03:58:38;16.40;99.90
28837;DHT22;50669;50.982;11.022;2022-09-09T04:01:09;16.40;99.90
28837;DHT22;50669;50.982;11.022;2022-09-09T04:03:36;16.40;99.90
28837;DHT22;50669;50.982;11.022;2022-09-09T04:06:03;16.40;99.90
28837;DHT22;50669;50.982;11.022;2022-09-09T04:08:32;16.40;99.90
28837;DHT22;50669;50.982;11.022;2022-09-09T04:10:58;16.40;99.90
28837;DHT22;50669;50.982;11.022;2022-09-09T04:13:27;16.40;99.90
28837;DHT22;50669;50.982;11.022;2022-09-09T04:15:57;16.30;99.90
28837;DHT22;50669;50.982;11.022;2022-09-09T04:18:24;16.40;99.90
28837;DHT22;50669;50.982;11.022;2022-09-09T04:20:51;16.30;99.90
28837;DHT22;50669;50.982;11.022;2022-09-09T04:23:17;16.30;99.90
28837;DHT22;50669;50.982;11.022;2022-09-09T04:25:56;16.30;99.90
28837;DHT22;50669;50.982;11.022;2022-09-09T04:28:24;16.30;99.90
28837;DHT22;50669;50.982;11.022;2022-09-09T04:30:50;16.30;99.90
28837;DHT22;50669;50.982;11.022;2022-09-09T04:33:16;16.30;99.90
28837;DHT22;50669;50.982;11.022;2022-09-09T04:35:48;16.20;99.90
28837;DHT22;50669;50.982;11.022;2022-09-09T04:38:16;16.10;99.90
28837;DHT22;50669;50.982;11.022;2022-09-09T04:40:49;16.10;99.90
28837;DHT22;50669;50.982;11.022;2022-09-09T04:43:17;16.10;99.90
28837;DHT22;50669;50.982;11.022;2022-09-09T04:45:47;16.10;99.90
28837;DHT22;50669;50.982;11.022;2022-09-09T04:48:13;16.00;99.90
28837;DHT22;50669;50.982;11.022;2022-09-09T04:50:39;16.00;99.90
28837;DHT22;50669;50.982;11.022;2022-09-09T04:53:06;16.00;99.90
28837;DHT22;50669;50.982;11.022;2022-09-09T04:55:34;16.00;99.90
28837;DHT22;50669;50.982;11.022;2022-09-09T04:58:08;16.00;99.90
28837;DHT22;50669;50.982;11.022;2022-09-09T05:00:37;16.00;99.90
28837;DHT22;50669;50.982;11.022;2022-09-09T05:03:06;15.90;99.90
28837;DHT22;50669;50.982;11.022;2022-09-09T05:05:34;15.90;99.90
28837;DHT22;50669;50.982;11.022;2022-09-09T05:08:05;16.00;99.90
28837;DHT22;50669;50.982;11.022;2022-09-09T05:10:34;15.90;99.90
28837;DHT22;50669;50.982;11.022;2022-09-09T05:13:02;16.00;99.90
28837;DHT22;50669;50.982;11.022;2022-09-09T05:15:28;16.00;99.90
28837;DHT22;50669;50.982;11.022;2022-09-09T05:17:57;16.00;99.90
28837;DHT22;50669;50.982;11.022;2022-09-09T05:20:24;16.00;99.90
28837;DHT22;50669;50.982;11.022;2022-09-09T05:22:55;16.00;99.90
28837;DHT22;50669;50.982;11.022;2022-09-09T05:25:24;16.10;99.90
28837;DHT22;50669;50.982;11.022;2022-09-09T05:27:55;16.10;99.90
28837;DHT22;50669;50.982;11.022;2022-09-09T05:30:21;16.10;99.90
28837;DHT22;50669;50.982;11.022;2022-09-09T05:32:48;16.00;99.90
28837;DHT22;50669;50.982;11.022;2022-09-09T05:35:14;16.10;99.90
28837;DHT22;50669;50.982;11.022;2022-09-09T05:37:40;16.10;99.90
28837;DHT22;50669;50.982;11.022;2022-09-09T05:40:10;16.10;99.90
28837;DHT22;50669;50.982;11.022;2022-09-09T05:42:38;16.10;99.90
28837;DHT22;50669;50.982;11.022;2022-09-09T05:45:10;16.10;99.90
28837;DHT22;50669;50.982;11.022;2022-09-09T05:47:38;16.20;99.90
28837;DHT22;50669;50.982;11.022;2022-09-09T05:50:04;16.20;99.90
28837;DHT22;50669;50.982;11.022;2022-09-09T05:52:30;16.30;99.90
28837;DHT22;50669;50.982;11.022;2022-09-09T05:54:58;16.30;99.90
28837;DHT22;50669;50.982;11.022;2022-09-09T05:57:27;16.30;99.90
28837;DHT22;50669;50.982;11.022;2022-09-09T05:59:55;16.40;99.90
28837;DHT22;50669;50.982;11.022;2022-09-09T06:02:21;16.40;99.90
28837;DHT22;50669;50.982;11.022;2022-09-09T06:04:46;16.40;99.90
28837;DHT22;50669;50.982;11.022;2022-09-09T06:07:14;16.50;99.90
28837;DHT22;50669;50.982;11.022;2022-09-09T06:09:40;16.50;99.90
28837;DHT22;50669;50.982;11.022;2022-09-09T06:12:06;16.60;99.90
28837;DHT22;50669;50.982;11.022;2022-09-09T06:14:31;16.60;99.90
28837;DHT22;50669;50.982;11.022;2022-09-09T06:16:57;16.70;99.90
28837;DHT22;50669;50.982;11.022;2022-09-09T06:19:23;16.70;99.90
28837;DHT22;50669;50.982;11.022;2022-09-09T06:21:54;16.80;99.90
28837;DHT22;50669;50.982;11.022;2022-09-09T06:24:20;16.90;99.90
28837;DHT22;50669;50.982;11.022;2022-09-09T06:26:45;17.00;99.90
28837;DHT22;50669;50.982;11.022;2022-09-09T06:29:11;17.20;99.90
28837;DHT22;50669;50.982;11.022;2022-09-09T06:31:37;17.30;99.90
28837;DHT22;50669;50.982;11.022;2022-09-09T06:34:07;17.50;99.90
28837;DHT22;50669;50.982;11.022;2022-09-09T06:36:35;17.60;99.90
28837;DHT22;50669;50.982;11.022;2022-09-09T06:39:02;17.60;99.90
28837;DHT22;50669;50.982;11.022;2022-09-09T06:41:31;17.60;99.90
28837;DHT22;50669;50.982;11.022;2022-09-09T06:44:00;17.70;99.90
28837;DHT22;50669;50.982;11.022;2022-09-09T06:46:28;17.80;99.90
28837;DHT22;50669;50.982;11.022;2022-09-09T06:48:56;17.90;99.90
28837;DHT22;50669;50.982;11.022;2022-09-09T06:51:24;17.90;99.90
28837;DHT22;50669;50.982;11.022;2022-09-09T06:53:54;17.90;99.90
28837;DHT22;50669;50.982;11.022;2022-09-09T06:56:39;17.80;99.90
28837;DHT22;50669;50.982;11.022;2022-09-09T06:59:10;17.70;99.90
28837;DHT22;50669;50.982;11.022;2022-09-09T07:01:43;17.70;99.90
28837;DHT22;50669;50.982;11.022;2022-09-09T07:04:09;17.80;99.90
28837;DHT22;50669;50.982;11.022;2022-09-09T07:06:43;17.80;99.90
28837;DHT22;50669;50.982;11.022;2022-09-09T07:09:09;17.90;99.90
28837;DHT22;50669;50.982;11.022;2022-09-09T07:11:44;17.90;99.90
28837;DHT22;50669;50.982;11.022;2022-09-09T07:14:10;17.90;99.90
28837;DHT22;50669;50.982;11.022;2022-09-09T07:16:42;18.10;99.90
28837;DHT22;50669;50.982;11.022;2022-09-09T07:19:09;18.20;99.90
28837;DHT22;50669;50.982;11.022;2022-09-09T07:21:35;18.20;99.90
28837;DHT22;50669;50.982;11.022;2022-09-09T07:24:01;18.40;99.90
28837;DHT22;50669;50.982;11.022;2022-09-09T07:26:30;18.50;99.90
28837;DHT22;50669;50.982;11.022;2022-09-09T07:28:56;18.70;99.90
28837;DHT22;50669;50.982;11.022;2022-09-09T07:31:29;18.90;99.90
28837;DHT22;50669;50.982;11.022;2022-09-09T07:33:59;18.90;99.90
28837;DHT22;50669;50.982;11.022;2022-09-09T07:36:27;18.90;99.90
28837;DHT22;50669;50.982;11.022;2022-09-09T07:38:57;19.10;99.90
28837;DHT22;50669;50.982;11.022;2022-09-09T07:41:27;19.10;99.90
28837;DHT22;50669;50.982;11.022;2022-09-09T07:43:56;19.20;99.90
28837;DHT22;50669;50.982;11.022;2022-09-09T07:46:23;19.20;99.90
28837;DHT22;50669;50.982;11.022;2022-09-09T07:48:52;19.20;99.90
28837;DHT22;50669;50.982;11.022;2022-09-09T07:51:23;19.30;99.90
28837;DHT22;50669;50.982;11.022;2022-09-09T07:53:55;19.30;99.90
28837;DHT22;50669;50.982;11.022;2022-09-09T07:56:21;19.30;99.90
28837;DHT22;50669;50.982;11.022;2022-09-09T07:58:50;19.40;99.90
28837;DHT22;50669;50.982;11.022;2022-09-09T08:03:51;19.70;99.90
28837;DHT22;50669;50.982;11.022;2022-09-09T08:06:18;19.60;99.90
28837;DHT22;50669;50.982;11.022;2022-09-09T08:08:43;19.70;99.90
28837;DHT22;50669;50.982;11.022;2022-09-09T08:11:14;19.60;99.90
28837;DHT22;50669;50.982;11.022;2022-09-09T08:13:43;19.70;99.90
28837;DHT22;50669;50.982;11.022;2022-09-09T08:16:14;19.80;99.90
28837;DHT22;50669;50.982;11.022;2022-09-09T08:18:40;19.90;99.90
28837;DHT22;50669;50.982;11.022;2022-09-09T08:21:16;20.00;99.90
28837;DHT22;50669;50.982;11.022;2022-09-09T08:23:44;20.20;99.90
28837;DHT22;50669;50.982;11.022;2022-09-09T08:26:16;20.20;99.90
28837;DHT22;50669;50.982;11.022;2022-09-09T08:28:42;20.30;99.90
28837;DHT22;50669;50.982;11.022;2022-09-09T08:31:16;20.20;99.90
28837;DHT22;50669;50.982;11.022;2022-09-09T08:33:45;20.20;99.90
28837;DHT22;50669;50.982;11.022;2022-09-09T08:36:21;20.20;99.90
28837;DHT22;50669;50.982;11.022;2022-09-09T08:38:48;20.30;99.90
28837;DHT22;50669;50.982;11.022;2022-09-09T08:50:19;20.50;99.90
28837;DHT22;50669;50.982;11.022;2022-09-09T08:53:14;20.50;99.90
28837;DHT22;50669;50.982;11.022;2022-09-09T08:58:22;20.60;99.90
28837;DHT22;50669;50.982;11.022;2022-09-09T09:01:28;20.70;99.90
28837;DHT22;50669;50.982;11.022;2022-09-09T09:06:50;20.80;99.90
28837;DHT22;50669;50.982;11.022;2022-09-09T09:09:35;20.90;99.90
28837;DHT22;50669;50.982;11.022;2022-09-09T09:12:16;21.20;99.90
28837;DHT22;50669;50.982;11.022;2022-09-09T09:14:46;21.30;99.90
28837;DHT22;50669;50.982;11.022;2022-09-09T09:17:23;21.40;99.90
28837;DHT22;50669;50.982;11.022;2022-09-09T09:19:50;21.30;99.90
28837;DHT22;50669;50.982;11.022;2022-09-09T09:25:05;21.30;99.90
28837;DHT22;50669;50.982;11.022;2022-09-09T09:30:22;21.70;99.90
28837;DHT22;50669;50.982;11.022;2022-09-09T09:35:39;22.10;99.90
28837;DHT22;50669;50.982;11.022;2022-09-09T09:38:18;21.90;99.90
28837;DHT22;50669;50.982;11.022;2022-09-09T09:40:55;22.00;99.90
28837;DHT22;50669;50.982;11.022;2022-09-09T09:43:33;22.20;99.90
28837;DHT22;50669;50.982;11.022;2022-09-09T09:46:00;22.10;99.90
28837;DHT22;50669;50.982;11.022;2022-09-09T09:48:30;22.00;99.90
28837;DHT22;50669;50.982;11.022;2022-09-09T09:50:58;22.10;99.90
28837;DHT22;50669;50.982;11.022;2022-09-09T09:53:32;22.20;99.90
28837;DHT22;50669;50.982;11.022;2022-09-09T09:58:31;21.90;99.90
28837;DHT22;50669;50.982;11.022;2022-09-09T10:00:59;21.60;99.90
28837;DHT22;50669;50.982;11.022;2022-09-09T10:03:35;21.50;99.90
28837;DHT22;50669;50.982;11.022;2022-09-09T10:06:03;21.40;99.90
28837;DHT22;50669;50.982;11.022;2022-09-09T10:08:33;21.50;99.90
28837;DHT22;50669;50.982;11.022;2022-09-09T10:19:34;22.00;99.90
28837;DHT22;50669;50.982;11.022;2022-09-09T10:30:19;22.30;99.90
28837;DHT22;50669;50.982;11.022;2022-09-09T10:36:02;22.40;99.90
28837;DHT22;50669;50.982;11.022;2022-09-09T10:38:45;22.70;99.90
28837;DHT22;50669;50.982;11.022;2022-09-09T10:52:21;23.10;98.10
28837;DHT22;50669;50.982;11.022;2022-09-09T10:55:18;23.30;98.10
28837;DHT22;50669;50.982;11.022;2022-09-09T10:57:52;23.20;97.80
28837;DHT22;50669;50.982;11.022;2022-09-09T11:03:03;23.20;97.10
28837;DHT22;50669;50.982;11.022;2022-09-09T11:06:28;23.10;96.50
28837;DHT22;50669;50.982;11.022;2022-09-09T11:08:59;23.10;96.40
28837;DHT22;50669;50.982;11.022;2022-09-09T11:11:31;23.20;96.20
28837;DHT22;50669;50.982;11.022;2022-09-09T11:16:57;23.10;94.80
28837;DHT22;50669;50.982;11.022;2022-09-09T11:19:41;22.90;95.10
28837;DHT22;50669;50.982;11.022;2022-09-09T11:22:14;22.60;95.20
28837;DHT22;50669;50.982;11.022;2022-09-09T11:24:47;22.50;95.70
28837;DHT22;50669;50.982;11.022;2022-09-09T11:27:29;22.40;95.30
28837;DHT22;50669;50.982;11.022;2022-09-09T11:30:22;22.20;95.30
28837;DHT22;50669;50.982;11.022;2022-09-09T11:38:26;21.80;96.60
28837;DHT22;50669;50.982;11.022;2022-09-09T11:41:07;21.80;96.80
28837;DHT22;50669;50.982;11.022;2022-09-09T11:43:45;21.80;96.90
28837;DHT22;50669;50.982;11.022;2022-09-09T11:46:18;21.80;96.90
28837;DHT22;50669;50.982;11.022;2022-09-09T11:48:57;21.70;96.80
28837;DHT22;50669;50.982;11.022;2022-09-09T11:51:26;21.70;97.30
28837;DHT22;50669;50.982;11.022;2022-09-09T11:53:59;21.70;97.10
28837;DHT22;50669;50.982;11.022;2022-09-09T11:59:02;21.60;97.70
28837;DHT22;50669;50.982;11.022;2022-09-09T12:06:52;21.50;98.30
28837;DHT22;50669;50.982;11.022;2022-09-09T12:11:49;21.50;99.60
28837;DHT22;50669;50.982;11.022;2022-09-09T12:14:53;21.60;99.90
28837;DHT22;50669;50.982;11.022;2022-09-09T12:17:21;22.50;99.40
28837;DHT22;50669;50.982;11.022;2022-09-09T12:19:48;24.80;97.70
28837;DHT22;50669;50.982;11.022;2022-09-09T12:28:09;28.50;85.90
28837;DHT22;50669;50.982;11.022;2022-09-09T12:31:01;28.60;85.80
28837;DHT22;50669;50.982;11.022;2022-09-09T12:33:38;28.20;85.00
28837;DHT22;50669;50.982;11.022;2022-09-09T12:36:12;27.30;83.90
28837;DHT22;50669;50.982;11.022;2022-09-09T12:38:42;26.50;84.70
28837;DHT22;50669;50.982;11.022;2022-09-09T12:41:25;25.90;85.10
28837;DHT22;50669;50.982;11.022;2022-09-09T12:44:09;25.00;80.70
28837;DHT22;50669;50.982;11.022;2022-09-09T12:46:45;24.10;82.60
28837;DHT22;50669;50.982;11.022;2022-09-09T12:49:43;23.70;84.70
28837;DHT22;50669;50.982;11.022;2022-09-09T12:54:45;22.70;88.60
28837;DHT22;50669;50.982;11.022;2022-09-09T12:57:18;22.60;89.90
28837;DHT22;50669;50.982;11.022;2022-09-09T12:59:46;23.00;90.30
28837;DHT22;50669;50.982;11.022;2022-09-09T13:02:26;23.30;89.00
28837;DHT22;50669;50.982;11.022;2022-09-09T13:04:53;23.70;88.20
28837;DHT22;50669;50.982;11.022;2022-09-09T13:07:20;24.10;86.30
28837;DHT22;50669;50.982;11.022;2022-09-09T13:09:48;24.20;86.80
28837;DHT22;50669;50.982;11.022;2022-09-09T13:12:23;24.40;86.70
28837;DHT22;50669;50.982;11.022;2022-09-09T13:14:53;24.30;86.20
28837;DHT22;50669;50.982;11.022;2022-09-09T13:17:22;23.90;86.30
28837;DHT22;50669;50.982;11.022;2022-09-09T13:19:49;23.30;87.40
28837;DHT22;50669;50.982;11.022;2022-09-09T13:22:33;23.20;89.60
28837;DHT22;50669;50.982;11.022;2022-09-09T13:27:36;22.80;90.30
28837;DHT22;50669;50.982;11.022;2022-09-09T13:35:29;22.30;90.00
28837;DHT22;50669;50.982;11.022;2022-09-09T13:37:55;22.40;90.30
28837;DHT22;50669;50.982;11.022;2022-09-09T13:40:22;22.60;86.40
28837;DHT22;50669;50.982;11.022;2022-09-09T13:42:52;22.60;85.80
28837;DHT22;50669;50.982;11.022;2022-09-09T13:45:21;22.60;86.20
28837;DHT22;50669;50.982;11.022;2022-09-09T13:47:48;22.60;87.00
28837;DHT22;50669;50.982;11.022;2022-09-09T13:50:29;22.70;85.80
28837;DHT22;50669;50.982;11.022;2022-09-09T13:52:57;22.60;83.80
28837;DHT22;50669;50.982;11.022;2022-09-09T13:55:29;22.40;82.90
28837;DHT22;50669;50.982;11.022;2022-09-09T13:57:57;22.20;84.40
28837;DHT22;50669;50.982;11.022;2022-09-09T14:00:23;22.20;84.50
28837;DHT22;50669;50.982;11.022;2022-09-09T14:02:51;22.20;85.30
28837;DHT22;50669;50.982;11.022;2022-09-09T14:05:18;22.20;85.90
28837;DHT22;50669;50.982;11.022;2022-09-09T14:07:44;22.30;86.00
28837;DHT22;50669;50.982;11.022;2022-09-09T14:10:11;22.30;86.20
28837;DHT22;50669;50.982;11.022;2022-09-09T14:12:37;22.40;85.10
28837;DHT22;50669;50.982;11.022;2022-09-09T14:15:07;22.40;84.50
28837;DHT22;50669;50.982;11.022;2022-09-09T14:17:33;22.60;83.50
28837;DHT22;50669;50.982;11.022;2022-09-09T14:19:59;22.60;83.40
28837;DHT22;50669;50.982;11.022;2022-09-09T14:22:25;22.60;84.10
28837;DHT22;50669;50.982;11.022;2022-09-09T14:24:51;22.80;84.50
28837;DHT22;50669;50.982;11.022;2022-09-09T14:27:16;22.80;85.30
28837;DHT22;50669;50.982;11.022;2022-09-09T14:29:44;22.90;84.70
28837;DHT22;50669;50.982;11.022;2022-09-09T14:32:12;22.90;84.90
28837;DHT22;50669;50.982;11.022;2022-09-09T14:34:40;22.90;85.10
28837;DHT22;50669;50.982;11.022;2022-09-09T14:37:06;22.80;85.40
28837;DHT22;50669;50.982;11.022;2022-09-09T14:39:31;22.70;85.20
28837;DHT22;50669;50.982;11.022;2022-09-09T14:41:57;22.60;86.50
28837;DHT22;50669;50.982;11.022;2022-09-09T14:44:23;22.60;85.30
28837;DHT22;50669;50.982;11.022;2022-09-09T14:46:49;22.70;85.90
28837;DHT22;50669;50.982;11.022;2022-09-09T14:49:17;22.60;84.90
28837;DHT22;50669;50.982;11.022;2022-09-09T14:51:43;22.50;84.90
28837;DHT22;50669;50.982;11.022;2022-09-09T14:54:09;22.40;85.80
28837;DHT22;50669;50.982;11.022;2022-09-09T14:56:36;22.40;86.40
28837;DHT22;50669;50.982;11.022;2022-09-09T14:59:02;22.30;87.10
28837;DHT22;50669;50.982;11.022;2022-09-09T15:01:28;22.30;87.60
28837;DHT22;50669;50.982;11.022;2022-09-09T15:04:04;22.40;87.00
28837;DHT22;50669;50.982;11.022;2022-09-09T15:06:34;22.30;87.20
28837;DHT22;50669;50.982;11.022;2022-09-09T15:09:03;22.20;87.50
28837;DHT22;50669;50.982;11.022;2022-09-09T15:11:31;22.10;88.90
28837;DHT22;50669;50.982;11.022;2022-09-09T15:13:58;22.20;89.50
28837;DHT22;50669;50.982;11.022;2022-09-09T15:16:26;22.40;90.00
28837;DHT22;50669;50.982;11.022;2022-09-09T15:18:55;22.40;89.90
28837;DHT22;50669;50.982;11.022;2022-09-09T15:21:22;22.30;90.30
28837;DHT22;50669;50.982;11.022;2022-09-09T15:23:49;22.20;90.60
28837;DHT22;50669;50.982;11.022;2022-09-09T15:26:15;22.10;90.90
28837;DHT22;50669;50.982;11.022;2022-09-09T15:28:42;22.00;91.40
28837;DHT22;50669;50.982;11.022;2022-09-09T15:31:35;21.90;91.50
28837;DHT22;50669;50.982;11.022;2022-09-09T15:34:04;21.80;91.40
28837;DHT22;50669;50.982;11.022;2022-09-09T15:36:40;21.80;91.20
28837;DHT22;50669;50.982;11.022;2022-09-09T15:39:08;21.80;91.00
28837;DHT22;50669;50.982;11.022;2022-09-09T15:41:35;21.70;91.20
28837;DHT22;50669;50.982;11.022;2022-09-09T15:44:01;21.70;91.20
28837;DHT22;50669;50.982;11.022;2022-09-09T15:46:41;21.70;91.40
28837;DHT22;50669;50.982;11.022;2022-09-09T15:49:23;21.70;91.20
28837;DHT22;50669;50.982;11.022;2022-09-09T15:51:59;21.70;91.40
28837;DHT22;50669;50.982;11.022;2022-09-09T15:54:33;21.70;91.40
28837;DHT22;50669;50.982;11.022;2022-09-09T15:57:03;21.60;91.40
28837;DHT22;50669;50.982;11.022;2022-09-09T15:59:30;21.60;91.40
28837;DHT22;50669;50.982;11.022;2022-09-09T16:01:57;21.60;91.40
28837;DHT22;50669;50.982;11.022;2022-09-09T16:04:26;21.60;91.40
28837;DHT22;50669;50.982;11.022;2022-09-09T16:07:02;21.60;90.80
28837;DHT22;50669;50.982;11.022;2022-09-09T16:09:28;21.50;90.80
28837;DHT22;50669;50.982;11.022;2022-09-09T16:11:59;21.40;91.10
28837;DHT22;50669;50.982;11.022;2022-09-09T16:14:26;21.40;91.00
28837;DHT22;50669;50.982;11.022;2022-09-09T16:16:52;21.30;91.20
28837;DHT22;50669;50.982;11.022;2022-09-09T16:19:18;21.30;91.10
28837;DHT22;50669;50.982;11.022;2022-09-09T16:21:46;21.20;91.30
28837;DHT22;50669;50.982;11.022;2022-09-09T16:24:16;21.10;91.60
28837;DHT22;50669;50.982;11.022;2022-09-09T16:26:45;21.10;91.90
28837;DHT22;50669;50.982;11.022;2022-09-09T16:29:14;21.10;91.90
28837;DHT22;50669;50.982;11.022;2022-09-09T16:31:41;21.00;92.10
28837;DHT22;50669;50.982;11.022;2022-09-09T16:34:07;21.00;92.30
28837;DHT22;50669;50.982;11.022;2022-09-09T16:36:37;20.90;92.50
28837;DHT22;50669;50.982;11.022;2022-09-09T16:39:09;20.80;92.70
28837;DHT22;50669;50.982;11.022;2022-09-09T16:41:37;20.70;92.80
28837;DHT22;50669;50.982;11.022;2022-09-09T16:44:07;20.80;93.00
28837;DHT22;50669;50.982;11.022;2022-09-09T16:46:36;20.80;93.10
28837;DHT22;50669;50.982;11.022;2022-09-09T16:49:06;20.70;93.10
28837;DHT22;50669;50.982;11.022;2022-09-09T16:51:45;20.60;93.30
28837;DHT22;50669;50.982;11.022;2022-09-09T16:54:13;20.60;93.50
28837;DHT22;50669;50.982;11.022;2022-09-09T16:56:43;20.60;93.50
28837;DHT22;50669;50.982;11.022;2022-09-09T16:59:17;20.60;93.60
28837;DHT22;50669;50.982;11.022;2022-09-09T17:01:45;20.60;93.60
28837;DHT22;50669;50.982;11.022;2022-09-09T17:04:13;20.50;93.70
28837;DHT22;50669;50.982;11.022;2022-09-09T17:06:41;20.50;93.70
28837;DHT22;50669;50.982;11.022;2022-09-09T17:09:10;20.50;93.70
28837;DHT22;50669;50.982;11.022;2022-09-09T17:11:37;20.40;93.60
28837;DHT22;50669;50.982;11.022;2022-09-09T17:14:05;20.40;93.80
28837;DHT22;50669;50.982;11.022;2022-09-09T17:16:32;20.40;93.90
28837;DHT22;50669;50.982;11.022;2022-09-09T17:19:03;20.40;93.90
28837;DHT22;50669;50.982;11.022;2022-09-09T17:21:29;20.40;94.00
28837;DHT22;50669;50.982;11.022;2022-09-09T17:23:58;20.30;93.90
28837;DHT22;50669;50.982;11.022;2022-09-09T17:26:29;20.30;94.10
28837;DHT22;50669;50.982;11.022;2022-09-09T17:28:55;20.30;94.20
28837;DHT22;50669;50.982;11.022;2022-09-09T17:31:26;20.20;94.20
28837;DHT22;50669;50.982;11.022;2022-09-09T17:33:52;20.20;94.20
28837;DHT22;50669;50.982;11.022;2022-09-09T17:38:48;20.10;94.40
28837;DHT22;50669;50.982;11.022;2022-09-09T17:41:35;20.10;94.50
28837;DHT22;50669;50.982;11.022;2022-09-09T17:44:04;19.90;94.70
28837;DHT22;50669;50.982;11.022;2022-09-09T17:46:38;19.80;94.80
28837;DHT22;50669;50.982;11.022;2022-09-09T17:49:08;19.80;95.10
28837;DHT22;50669;50.982;11.022;2022-09-09T17:51:35;19.70;95.20
28837;DHT22;50669;50.982;11.022;2022-09-09T17:54:06;19.70;95.30
28837;DHT22;50669;50.982;11.022;2022-09-09T17:56:36;19.60;95.40
28837;DHT22;50669;50.982;11.022;2022-09-09T17:59:07;19.50;95.60
28837;DHT22;50669;50.982;11.022;2022-09-09T18:01:40;19.50;95.80
28837;DHT22;50669;50.982;11.022;2022-09-09T18:04:07;19.40;95.90